LiveATC.Net - Listen to live air traffic control over the Internet!


ICAO: KFBG  IATA: FBG   Airport: Simmons Army Airfield
City: Fort Bragg   State/Province: North Carolina
Country: United States   Continent: North America
KFBG METAR Weather: KFBG 031356Z AUTO 15008KT 10SM CLR 27/24 A3004 RMK AO2 SLP173 T02720244 $
KFBG Flight Activity (FlightAware)
KFBG Airport Info   (iFlightPlanner)
KFBG VFR Sectional Chart   (iFlightPlanner) 
KFBG IFR Low Chart   (iFlightPlanner) 

KFBG/KPOB Gnd/Twr
Feed Status: DOWN
Last heard on: 2020-08-03 02:53:05 (0 days 11 hours 59 minutes ago)
Archive Access: KFBG/KPOB Gnd/Twr
FacilityFrequency
Pope Ground124.550
Pope Tower135.025
Simmons Base Ops142.350
Simmons Ground121.900
Simmons PAR Radar124.200
Simmons Radar120.800
Simmons Tower125.900
Feed sponsored by: Cape Fear Aviation

NOTICE

Unauthorized use prohibited. See LiveATC.net Terms of Service


Airport/ARTCC Code
Frequency Search
(e.g., 124.400, 128.75)
Site-wide search
 


Browse Feeds
Top 50 Feeds
Coverage Map
Bad Weather Areas

LiveATC FAQ
Offer LiveATC feed
Contact LiveATC.net
Press Inquiries

LiveATC on iPhone
LiveATC on Android

Windows Phone
Windows 8/10

LiveATC Mobile
(Mobile browser)

ATC Audio Archives
Interesting Recordings

LiveATC Forums


Home Page
About LiveATC.net
Make a Donation
Terms of Use
Privacy Policy

Canadian Air Freqs

AIRMETs/SIGMETs

FAA Airport Status
Nat'l Airspace Status
Arrival Demand Charts


Server Software By:
Icecast.org
Liquidsoap